Time;durP1;ratioP1;P1;durP2;ratioP2;P2;SDS_P1;SDS_P2;PMS_P1;PMS_P2;Temp;Humidity;BMP_temperature;BMP_pressure;BME280_temperature;BME280_humidity;BME280_pressure;Samples;Min_cycle;Max_cycle;Signal;HPM_P1;HPM_P2
2021/04/25 00:00:33;;;;;;;6.07;3.00;;;;;;;2.35;79.56;101440.50;5113033;28;20237;-79
2021/04/25 00:02:59;;;;;;;6.20;3.47;;;;;;;2.34;79.83;101438.78;5112670;28;20579;-80
2021/04/25 00:05:25;;;;;;;6.30;3.10;;;;;;;2.31;80.20;101436.97;5115062;27;20203;-80
2021/04/25 00:07:52;;;;;;;5.60;3.53;;;;;;;2.29;80.05;101433.47;5113307;27;20219;-80
2021/04/25 00:10:20;;;;;;;7.13;3.27;;;;;;;2.27;79.54;101434.25;5114200;27;20579;-80
2021/04/25 00:12:48;;;;;;;8.47;3.20;;;;;;;2.27;80.34;101434.25;5111782;28;20239;-80
2021/04/25 00:15:17;;;;;;;6.77;3.80;;;;;;;2.21;80.40;101434.06;5113864;27;20215;-80
2021/04/25 00:17:43;;;;;;;7.07;3.60;;;;;;;2.20;80.14;101430.63;5112928;28;20222;-80
2021/04/25 00:20:12;;;;;;;5.77;3.77;;;;;;;2.16;80.67;101441.63;5113409;28;20230;-80
2021/04/25 00:22:38;;;;;;;8.37;3.20;;;;;;;2.14;80.60;101432.97;5113636;28;20210;-80
2021/04/25 00:25:05;;;;;;;5.73;3.47;;;;;;;2.12;80.80;101430.38;5114112;27;20248;-80
2021/04/25 00:27:31;;;;;;;8.03;4.13;;;;;;;2.09;80.71;101432.84;5113161;28;20268;-79
2021/04/25 00:29:57;;;;;;;5.83;3.87;;;;;;;2.02;81.71;101430.00;5114596;27;20208;-80
2021/04/25 00:32:23;;;;;;;5.83;3.80;;;;;;;2.01;81.49;101433.44;5114432;28;20585;-80
2021/04/25 00:34:49;;;;;;;5.47;3.50;;;;;;;1.98;81.64;101426.47;5114858;28;20215;-79
2021/04/25 00:37:15;;;;;;;7.57;4.10;;;;;;;1.90;81.02;101426.25;5114509;27;20234;-80
2021/04/25 00:39:41;;;;;;;7.70;4.10;;;;;;;1.85;81.32;101422.63;5115043;28;20747;-80
2021/04/25 00:42:08;;;;;;;7.80;4.40;;;;;;;1.82;81.39;101419.94;5112558;27;20218;-79
2021/04/25 00:44:34;;;;;;;6.10;3.60;;;;;;;1.79;81.81;101423.31;5114087;28;20213;-80
2021/04/25 00:47:00;;;;;;;6.33;3.77;;;;;;;1.81;82.40;101420.78;5113336;28;20287;-79
2021/04/25 00:49:28;;;;;;;7.70;4.30;;;;;;;1.80;82.36;101424.16;5115006;28;20192;-80
2021/04/25 00:51:54;;;;;;;11.97;4.33;;;;;;;1.81;82.49;101417.34;5116573;28;20222;-80
2021/04/25 00:54:21;;;;;;;8.67;4.13;;;;;;;1.74;82.24;101417.13;5116524;28;20281;-80
2021/04/25 00:56:47;;;;;;;6.83;3.90;;;;;;;1.71;82.43;101413.59;5117572;28;20230;-79
2021/04/25 00:59:14;;;;;;;9.47;4.20;;;;;;;1.70;82.91;101412.69;5115433;28;20234;-80
2021/04/25 01:01:40;;;;;;;6.60;4.03;;;;;;;1.58;83.07;101410.59;5117237;27;20209;-79
2021/04/25 01:04:06;;;;;;;7.57;4.17;;;;;;;1.55;83.39;101409.63;5117475;28;20206;-80
2021/04/25 01:06:32;;;;;;;5.73;3.57;;;;;;;1.56;82.90;101409.66;5116908;27;20252;-80
2021/04/25 01:08:58;;;;;;;5.57;3.90;;;;;;;1.56;83.36;101407.09;5116507;28;20572;-80
2021/04/25 01:11:25;;;;;;;8.57;4.23;;;;;;;1.51;83.04;101412.94;5116523;28;20214;-80
2021/04/25 01:13:52;;;;;;;8.63;4.37;;;;;;;1.46;83.33;101412.75;5116772;28;20214;-80
2021/04/25 01:16:18;;;;;;;7.37;3.83;;;;;;;1.44;83.15;101408.41;5119021;28;20221;-80
2021/04/25 01:18:44;;;;;;;7.07;4.47;;;;;;;1.39;83.68;101408.25;5120566;28;20238;-80
2021/04/25 01:21:11;;;;;;;7.17;4.50;;;;;;;1.38;83.54;101412.50;5120089;27;20210;-80
2021/04/25 01:23:37;;;;;;;6.63;3.80;;;;;;;1.46;83.60;101410.19;5118324;28;20211;-80
2021/04/25 01:26:03;;;;;;;6.03;3.90;;;;;;;1.44;83.77;101411.84;5120486;27;20230;-80
2021/04/25 01:28:29;;;;;;;7.10;4.10;;;;;;;1.37;84.04;101413.34;5119649;28;20210;-80
2021/04/25 01:30:55;;;;;;;12.80;5.40;;;;;;;1.41;83.99;101410.84;5119444;28;20209;-80
2021/04/25 01:33:22;;;;;;;8.43;4.63;;;;;;;1.45;83.83;101412.69;5119861;28;20209;-80
2021/04/25 01:35:48;;;;;;;6.83;4.17;;;;;;;1.53;82.91;101411.28;5119640;28;20203;-80
2021/04/25 01:38:15;;;;;;;5.93;3.63;;;;;;;1.51;83.41;101410.38;5119936;28;20208;-80
2021/04/25 01:40:41;;;;;;;10.13;5.00;;;;;;;1.51;83.14;101407.78;5121479;27;20230;-80
2021/04/25 01:43:07;;;;;;;9.80;4.23;;;;;;;1.51;82.58;101408.66;5120550;28;20685;-80
2021/04/25 01:45:34;;;;;;;9.00;4.57;;;;;;;1.51;83.14;101408.66;5121539;28;20684;-80
2021/04/25 01:48:02;;;;;;;6.20;4.23;;;;;;;1.47;82.68;101409.38;5120388;28;20217;-80
2021/04/25 01:50:29;;;;;;;6.03;3.97;;;;;;;1.52;82.98;101407.81;5121774;28;20203;-80
2021/04/25 01:52:56;;;;;;;6.07;3.40;;;;;;;1.44;83.19;101413.53;5116281;28;20217;-80
2021/04/25 01:55:24;;;;;;;7.23;3.90;;;;;;;1.44;82.36;101406.69;5119277;28;20203;-81
2021/04/25 01:57:50;;;;;;;5.67;3.80;;;;;;;1.56;82.28;101411.38;5120038;28;20221;-80
2021/04/25 02:00:20;;;;;;;6.83;4.17;;;;;;;1.49;81.98;101410.31;5122304;28;20228;-80
2021/04/25 02:02:53;;;;;;;5.10;3.77;;;;;;;1.53;82.39;101409.56;5117260;28;20231;-79
2021/04/25 02:05:19;;;;;;;6.20;4.27;;;;;;;1.47;82.65;101414.53;5113400;28;20225;-79
2021/04/25 02:07:45;;;;;;;6.43;3.93;;;;;;;1.46;81.98;101410.19;5112045;28;20231;-80
2021/04/25 02:10:12;;;;;;;8.47;3.67;;;;;;;1.54;82.14;101407.88;5112764;28;20672;-80
2021/04/25 02:12:39;;;;;;;6.07;4.00;;;;;;;1.52;82.15;101412.09;5111227;27;20210;-80
2021/04/25 02:15:08;;;;;;;7.97;3.77;;;;;;;1.51;82.02;101411.22;5111902;28;20726;-80
2021/04/25 02:17:33;;;;;;;9.93;4.20;;;;;;;1.49;81.75;101412.00;5111354;28;20283;-79
2021/04/25 02:20:00;;;;;;;8.63;4.03;;;;;;;1.41;82.24;101409.16;5113244;28;20227;-79
2021/04/25 02:22:26;;;;;;;5.50;4.00;;;;;;;1.36;81.88;101413.28;5115169;28;20210;-80
2021/04/25 02:24:52;;;;;;;7.07;3.30;;;;;;;1.38;82.45;101421.91;5119723;27;20695;-80
2021/04/25 02:27:18;;;;;;;6.27;3.80;;;;;;;1.26;82.30;101418.94;5118954;27;20301;-79
2021/04/25 02:29:45;;;;;;;5.90;3.80;;;;;;;1.26;82.68;101424.06;5119056;27;20204;-80
2021/04/25 02:32:11;;;;;;;4.87;3.47;;;;;;;1.25;82.78;101424.88;5119184;27;20214;-80
2021/04/25 02:34:37;;;;;;;5.50;4.07;;;;;;;1.22;82.72;101427.34;5119142;27;20207;-79
2021/04/25 02:37:04;;;;;;;8.90;4.47;;;;;;;1.23;82.62;101422.28;5118692;27;20223;-79
2021/04/25 02:39:30;;;;;;;5.33;3.80;;;;;;;1.15;82.68;101419.44;5119333;28;20260;-79
2021/04/25 02:41:56;;;;;;;4.93;4.03;;;;;;;1.13;82.89;101426.22;5117372;27;20677;-79
2021/04/25 02:44:22;;;;;;;7.60;4.30;;;;;;;1.10;82.46;101426.09;5117515;27;20263;-79
2021/04/25 02:46:49;;;;;;;5.53;3.70;;;;;;;1.10;82.84;101428.66;5118210;27;20227;-79
2021/04/25 02:49:15;;;;;;;5.33;3.63;;;;;;;1.04;82.77;101433.59;5118375;28;20256;-79
2021/04/25 02:51:41;;;;;;;7.40;4.10;;;;;;;1.02;82.67;101424.94;5118107;27;20685;-80
2021/04/25 02:54:06;;;;;;;7.87;3.97;;;;;;;1.04;82.66;101422.44;5118968;27;20294;-79
2021/04/25 02:56:32;;;;;;;6.07;3.70;;;;;;;1.14;82.55;101427.94;5117469;27;20629;-79
2021/04/25 02:58:58;;;;;;;6.80;3.90;;;;;;;1.14;82.24;101430.53;5118415;27;20773;-79
2021/04/25 03:01:24;;;;;;;4.63;3.23;;;;;;;1.13;82.30;101431.38;5118398;27;20652;-79
2021/04/25 03:03:51;;;;;;;6.33;3.77;;;;;;;1.12;82.53;101434.75;5118377;27;20226;-80
2021/04/25 03:06:17;;;;;;;7.23;3.60;;;;;;;1.20;82.47;101429.88;5117841;27;20570;-79
2021/04/25 03:08:43;;;;;;;6.67;3.50;;;;;;;1.19;82.73;101425.56;5118836;27;20212;-79
2021/04/25 03:11:09;;;;;;;6.90;3.83;;;;;;;1.15;82.03;101431.38;5117428;27;20730;-79
2021/04/25 03:13:35;;;;;;;7.87;4.93;;;;;;;1.12;82.80;101433.88;5118086;27;20304;-80
2021/04/25 03:16:01;;;;;;;6.23;3.37;;;;;;;1.13;82.66;101433.94;5118370;27;20230;-79
2021/04/25 03:18:27;;;;;;;7.03;3.70;;;;;;;1.10;82.55;101438.94;5118890;27;20203;-79
2021/04/25 03:20:54;;;;;;;7.57;3.70;;;;;;;1.03;82.93;101436.09;5117731;27;20580;-80
2021/04/25 03:23:20;;;;;;;5.63;3.73;;;;;;;0.98;83.51;101438.53;5117693;27;20232;-79
2021/04/25 03:25:46;;;;;;;8.47;3.67;;;;;;;0.93;83.67;101437.47;5118248;27;20278;-79
2021/04/25 03:28:12;;;;;;;6.70;4.00;;;;;;;0.83;83.32;101431.09;5117377;27;20215;-79
2021/04/25 03:30:38;;;;;;;8.03;3.93;;;;;;;0.75;83.60;101433.41;5118944;27;20210;-79
2021/04/25 03:33:05;;;;;;;8.07;3.90;;;;;;;0.66;84.39;101429.63;5116097;27;20255;-79
2021/04/25 03:35:32;;;;;;;11.87;3.97;;;;;;;0.63;84.46;101432.06;5114988;27;20224;-79
2021/04/25 03:37:59;;;;;;;8.73;4.77;;;;;;;0.51;85.12;101427.34;5115724;28;20266;-79
2021/04/25 03:40:25;;;;;;;7.17;3.83;;;;;;;0.49;85.28;101429.84;5120694;27;20239;-80
2021/04/25 03:42:51;;;;;;;11.23;5.10;;;;;;;0.53;85.43;101434.28;5119410;28;20214;-80
2021/04/25 03:45:19;;;;;;;7.50;5.07;;;;;;;0.46;85.35;101428.88;5120935;27;20203;-79
2021/04/25 03:47:47;;;;;;;6.60;4.10;;;;;;;0.46;85.37;101432.31;5119583;28;20234;-79
2021/04/25 03:50:15;;;;;;;7.83;4.17;;;;;;;0.34;85.46;101437.00;5119415;27;20201;-80
2021/04/25 03:52:42;;;;;;;7.20;3.80;;;;;;;0.31;85.90;101430.03;5118363;28;20224;-79
2021/04/25 03:55:09;;;;;;;9.30;4.63;;;;;;;0.33;85.89;101430.94;5119604;27;20204;-80
2021/04/25 03:57:35;;;;;;;7.80;3.70;;;;;;;0.36;85.88;101440.50;5119270;28;20229;-80
2021/04/25 04:00:02;;;;;;;8.17;4.47;;;;;;;0.34;86.13;101435.28;5120497;27;20267;-80
2021/04/25 04:02:28;;;;;;;7.90;4.80;;;;;;;0.39;85.91;101440.59;5118976;27;20201;-79
2021/04/25 04:04:53;;;;;;;10.00;4.80;;;;;;;0.44;86.20;101439.09;5120001;27;20204;-80
2021/04/25 04:07:20;;;;;;;8.40;4.40;;;;;;;0.41;86.17;101438.09;5118343;28;20234;-79
2021/04/25 04:09:45;;;;;;;8.57;4.53;;;;;;;0.47;85.90;101441.75;5119965;28;20243;-79
2021/04/25 04:12:12;;;;;;;10.27;4.93;;;;;;;0.52;85.80;101439.38;5119530;27;20201;-79
2021/04/25 04:14:38;;;;;;;7.47;4.30;;;;;;;0.49;85.98;101442.69;5118862;28;20227;-80
2021/04/25 04:17:04;;;;;;;6.87;4.00;;;;;;;0.41;85.82;101450.94;5119555;28;21081;-80
2021/04/25 04:19:30;;;;;;;5.80;3.97;;;;;;;0.42;86.11;101448.44;5118684;28;20227;-80
2021/04/25 04:21:56;;;;;;;7.03;4.40;;;;;;;0.52;86.12;101449.66;5119911;28;20203;-80
2021/04/25 04:24:22;;;;;;;5.70;4.17;;;;;;;0.55;86.03;101447.19;5118915;28;20208;-80
2021/04/25 04:26:48;;;;;;;8.20;4.80;;;;;;;0.59;85.76;101446.50;5118975;28;20230;-80
2021/04/25 04:29:15;;;;;;;4.60;4.00;;;;;;;0.65;85.82;101444.16;5118799;28;20214;-80
2021/04/25 04:31:41;;;;;;;7.37;3.97;;;;;;;0.66;85.63;101445.06;5119209;27;20206;-80
2021/04/25 04:34:06;;;;;;;9.50;4.20;;;;;;;0.73;85.56;101444.44;5119175;28;20211;-80
2021/04/25 04:36:32;;;;;;;5.60;4.53;;;;;;;0.75;85.37;101440.22;5118923;27;20228;-79
2021/04/25 04:38:58;;;;;;;7.67;4.13;;;;;;;0.81;85.46;101439.59;5119619;28;20208;-80
2021/04/25 04:41:24;;;;;;;6.60;4.63;;;;;;;0.86;84.68;101432.94;5120107;28;20201;-80
2021/04/25 04:43:50;;;;;;;7.73;4.43;;;;;;;0.88;84.72;101444.16;5118893;28;20209;-80
2021/04/25 04:46:17;;;;;;;8.23;4.57;;;;;;;0.88;84.62;101444.16;5118260;28;20355;-80
2021/04/25 04:48:43;;;;;;;7.73;4.10;;;;;;;0.92;84.38;101443.44;5118889;28;20206;-80
2021/04/25 04:51:09;;;;;;;13.07;5.13;;;;;;;0.92;84.66;101440.88;5118825;28;20213;-80
2021/04/25 04:53:35;;;;;;;6.67;4.23;;;;;;;0.94;84.68;101437.53;5119433;28;20264;-80
2021/04/25 04:56:01;;;;;;;6.10;4.30;;;;;;;0.97;84.57;101435.06;5118983;28;20231;-80
2021/04/25 04:58:27;;;;;;;6.83;4.37;;;;;;;0.94;84.44;101437.53;5119235;28;20291;-79
2021/04/25 05:00:53;;;;;;;7.83;4.43;;;;;;;0.96;83.91;101435.88;5118121;28;20225;-80
2021/04/25 05:03:19;;;;;;;9.33;5.13;;;;;;;0.98;84.35;101433.38;5118426;28;20206;-80
2021/04/25 05:05:45;;;;;;;8.07;4.33;;;;;;;1.02;84.00;101435.22;5119152;28;20225;-80
2021/04/25 05:08:11;;;;;;;8.07;4.53;;;;;;;1.04;83.31;101437.88;5118089;28;20738;-80
2021/04/25 05:10:37;;;;;;;6.23;3.50;;;;;;;1.06;83.43;101439.66;5119855;27;20244;-79
2021/04/25 05:13:08;;;;;;;7.73;4.00;;;;;;;1.05;83.43;101442.16;5118571;28;20215;-80
2021/04/25 05:15:34;;;;;;;7.47;4.30;;;;;;;1.05;83.77;101444.75;5120245;27;20240;-80
2021/04/25 05:18:00;;;;;;;4.70;3.93;;;;;;;1.10;83.29;101445.81;5118440;28;20216;-79
2021/04/25 05:20:28;;;;;;;5.83;4.23;;;;;;;1.16;83.30;101444.31;5120225;27;20228;-80
2021/04/25 05:22:54;;;;;;;8.27;4.10;;;;;;;1.21;83.20;101449.63;5118597;28;20213;-80
2021/04/25 05:25:20;;;;;;;5.73;3.73;;;;;;;1.27;83.03;101444.72;5120264;28;20209;-80
2021/04/25 05:27:46;;;;;;;6.20;4.90;;;;;;;1.29;82.86;101452.44;5119306;28;20691;-80
2021/04/25 05:30:13;;;;;;;5.73;4.50;;;;;;;1.37;82.51;101451.06;5120170;28;20200;-80
2021/04/25 05:32:39;;;;;;;8.23;4.40;;;;;;;1.46;82.65;101451.34;5118645;28;20211;-80
2021/04/25 05:35:05;;;;;;;5.27;4.20;;;;;;;1.50;82.28;101458.34;5117021;28;20226;-79
2021/04/25 05:37:32;;;;;;;4.97;3.73;;;;;;;1.53;81.69;101453.31;5114131;28;20224;-80
2021/04/25 05:39:59;;;;;;;5.40;3.93;;;;;;;1.58;81.28;101451.75;5116333;28;20227;-80
2021/04/25 05:42:25;;;;;;;10.90;4.37;;;;;;;1.59;82.17;101450.97;5114906;28;20551;-80
2021/04/25 05:44:51;;;;;;;5.03;3.40;;;;;;;1.61;82.03;101453.59;5116303;28;20209;-80
2021/04/25 05:47:17;;;;;;;7.40;4.00;;;;;;;1.66;81.74;101451.16;5115176;28;20230;-80
2021/04/25 05:49:43;;;;;;;5.77;4.17;;;;;;;1.78;81.67;101452.47;5115624;28;20207;-80
2021/04/25 05:52:09;;;;;;;6.20;4.10;;;;;;;1.91;81.37;101458.00;5115078;27;20212;-80
2021/04/25 05:54:36;;;;;;;6.13;4.33;;;;;;;1.98;81.57;101458.25;5115930;28;20203;-80
2021/04/25 05:57:02;;;;;;;7.60;4.90;;;;;;;2.04;81.78;101460.13;5114708;28;20220;-80
2021/04/25 05:59:28;;;;;;;6.60;4.17;;;;;;;2.12;80.72;101463.84;5115099;28;20253;-80
2021/04/25 06:01:54;;;;;;;7.87;4.30;;;;;;;2.23;80.28;101466.75;5115352;28;20227;-80
2021/04/25 06:04:20;;;;;;;6.03;3.83;;;;;;;2.44;79.71;101468.25;5110885;28;20574;-79
2021/04/25 06:06:46;;;;;;;5.10;3.90;;;;;;;2.59;78.96;101461.00;5110230;28;20233;-80
2021/04/25 06:09:12;;;;;;;9.73;4.27;;;;;;;2.76;78.80;101466.66;5110557;28;20203;-80
2021/04/25 06:11:39;;;;;;;4.50;3.77;;;;;;;2.93;77.93;101460.31;5110246;28;20208;-80
2021/04/25 06:14:05;;;;;;;6.33;4.27;;;;;;;3.18;77.91;101456.69;5109535;28;20231;-80
2021/04/25 06:16:31;;;;;;;5.43;3.80;;;;;;;3.35;77.58;101454.56;5109559;28;20310;-79
2021/04/25 06:18:57;;;;;;;6.57;3.03;;;;;;;3.50;75.21;101458.41;5110896;28;20207;-79
2021/04/25 06:21:25;;;;;;;5.60;2.43;;;;;;;3.61;71.34;101461.25;5110120;28;20206;-80
2021/04/25 06:23:51;;;;;;;5.90;2.33;;;;;;;3.65;71.61;101458.81;5110048;28;20203;-80
2021/04/25 06:26:17;;;;;;;7.17;2.67;;;;;;;3.76;71.91;101464.22;5110954;28;20323;-79
2021/04/25 06:28:43;;;;;;;4.20;2.73;;;;;;;3.71;71.83;101464.13;5112328;28;20203;-79
2021/04/25 06:31:09;;;;;;;3.47;2.60;;;;;;;3.74;70.72;101460.72;5111826;28;20211;-79
2021/04/25 06:33:35;;;;;;;3.63;2.60;;;;;;;3.74;70.48;101461.59;5112221;28;20236;-79
2021/04/25 06:36:01;;;;;;;12.30;2.73;;;;;;;3.84;71.55;101464.41;5111970;28;20219;-79
2021/04/25 06:38:27;;;;;;;2.87;2.07;;;;;;;3.83;69.55;101470.44;5112731;28;20203;-79
2021/04/25 06:40:53;;;;;;;2.77;2.47;;;;;;;3.86;70.54;101468.78;5112811;28;20271;-79
2021/04/25 06:43:19;;;;;;;4.17;2.50;;;;;;;3.96;69.60;101472.47;5111995;28;20245;-79
2021/04/25 06:45:47;;;;;;;4.70;2.67;;;;;;;3.99;69.34;101469.97;5112833;28;20238;-79
2021/04/25 06:48:12;;;;;;;5.67;2.07;;;;;;;4.00;69.46;101466.53;5111350;28;20218;-80
2021/04/25 06:50:38;;;;;;;5.47;2.30;;;;;;;3.95;68.81;101471.59;5112907;28;20204;-79
2021/04/25 06:53:04;;;;;;;9.70;2.17;;;;;;;4.04;69.06;101464.91;5112541;28;20688;-79
2021/04/25 06:55:30;;;;;;;3.20;1.90;;;;;;;3.98;67.63;101470.78;5112915;28;20204;-80
2021/04/25 06:57:56;;;;;;;3.97;1.90;;;;;;;4.06;67.27;101471.84;5110836;28;20311;-79
2021/04/25 07:00:24;;;;;;;6.30;2.53;;;;;;;4.16;67.09;101473.84;5109977;28;20247;-79
2021/04/25 07:02:53;;;;;;;6.57;2.30;;;;;;;4.23;67.70;101471.41;5108200;28;20214;-79
2021/04/25 07:05:19;;;;;;;5.90;2.20;;;;;;;4.32;67.96;101472.50;5110390;28;20272;-79
2021/04/25 07:07:45;;;;;;;7.87;2.37;;;;;;;4.41;68.28;101478.72;5110136;28;20277;-78
2021/04/25 07:10:11;;;;;;;5.17;2.67;;;;;;;4.38;67.83;101475.22;5115049;27;20256;-78
2021/04/25 07:12:37;;;;;;;3.50;2.00;;;;;;;4.32;67.22;101472.50;5114884;28;20208;-79
2021/04/25 07:15:06;;;;;;;6.97;4.03;;;;;;;4.46;67.61;101475.41;5115711;27;20294;-78
2021/04/25 07:17:32;;;;;;;3.33;2.27;;;;;;;4.38;67.60;101474.34;5113350;28;20248;-77
2021/04/25 07:19:59;;;;;;;4.97;2.13;;;;;;;4.33;66.06;101476.81;5112213;28;20226;-77
2021/04/25 07:22:25;;;;;;;8.23;2.33;;;;;;;4.49;66.19;101482.34;5111702;28;20200;-77
2021/04/25 07:24:51;;;;;;;6.07;2.17;;;;;;;4.40;65.31;101480.44;5111308;28;20204;-77
2021/04/25 07:27:18;;;;;;;6.97;2.40;;;;;;;4.41;66.00;101478.72;5110640;28;20227;-77
2021/04/25 07:29:44;;;;;;;4.90;2.40;;;;;;;4.53;66.72;101474.69;5110952;28;20261;-77
2021/04/25 07:32:10;;;;;;;4.13;2.00;;;;;;;4.73;66.19;101476.84;5110963;28;20732;-77
2021/04/25 07:34:36;;;;;;;6.07;2.03;;;;;;;4.72;64.76;101475.97;5111293;28;20211;-77
2021/04/25 07:37:04;;;;;;;4.83;2.40;;;;;;;4.76;65.69;101485.53;5110554;28;20223;-77
2021/04/25 07:39:31;;;;;;;6.13;2.73;;;;;;;4.66;65.81;101485.28;5111484;28;20284;-77
2021/04/25 07:41:58;;;;;;;5.83;2.70;;;;;;;4.74;65.64;101491.53;5110956;27;20199;-77
2021/04/25 07:44:24;;;;;;;4.43;1.83;;;;;;;4.72;64.22;101491.50;5110402;28;20631;-77
2021/04/25 07:46:50;;;;;;;6.00;1.80;;;;;;;4.84;63.35;101480.53;5110162;28;20224;-77
2021/04/25 07:49:16;;;;;;;4.57;1.70;;;;;;;4.78;63.10;101486.44;5111605;28;20744;-77
2021/04/25 07:51:42;;;;;;;3.40;1.63;;;;;;;4.79;63.87;101484.72;5110461;27;20664;-77
2021/04/25 07:54:09;;;;;;;7.57;2.47;;;;;;;4.84;63.54;101480.53;5110102;28;20207;-77
2021/04/25 07:56:35;;;;;;;4.73;1.63;;;;;;;4.90;62.51;101478.09;5109882;28;20227;-77
2021/04/25 07:59:01;;;;;;;4.83;1.63;;;;;;;4.93;62.48;101487.63;5110519;27;20578;-77
2021/04/25 08:01:27;;;;;;;1.87;1.50;;;;;;;4.92;62.86;101481.56;5109597;27;20203;-76
2021/04/25 08:03:53;;;;;;;3.20;1.50;;;;;;;5.05;62.11;101480.09;5109291;28;20726;-77
2021/04/25 08:06:20;;;;;;;7.67;2.17;;;;;;;5.05;60.54;101482.69;5113017;27;20716;-78
2021/04/25 08:08:46;;;;;;;3.90;1.67;;;;;;;5.23;61.03;101484.75;5115011;28;20215;-77
2021/04/25 08:11:13;;;;;;;4.93;1.40;;;;;;;5.42;60.61;101485.16;5113630;27;20219;-79
2021/04/25 08:13:38;;;;;;;3.70;1.47;;;;;;;5.42;59.93;101483.44;5109773;28;20215;-76
2021/04/25 08:16:05;;;;;;;6.13;1.50;;;;;;;5.58;59.85;101480.28;5112417;27;20238;-78
2021/04/25 08:18:31;;;;;;;6.87;2.10;;;;;;;5.73;58.83;101489.19;5114868;28;20255;-76
2021/04/25 08:20:57;;;;;;;3.53;1.63;;;;;;;5.43;57.07;101485.19;5108642;27;20767;-78
2021/04/25 08:23:23;;;;;;;3.60;1.53;;;;;;;5.40;57.01;101479.94;5111202;28;20207;-77
2021/04/25 08:25:49;;;;;;;2.60;1.53;;;;;;;5.43;58.51;101492.94;5113209;27;20662;-77
2021/04/25 08:28:16;;;;;;;4.80;1.77;;;;;;;5.66;58.20;101489.91;5107618;28;20445;-78
2021/04/25 08:30:42;;;;;;;3.87;1.53;;;;;;;5.81;57.98;101494.47;5109707;28;20829;-77
2021/04/25 08:33:08;;;;;;;3.70;1.70;;;;;;;5.92;59.50;101488.63;5108634;28;20200;-76
2021/04/25 08:35:34;;;;;;;5.70;1.80;;;;;;;5.88;59.46;101497.19;5109977;27;20245;-76
2021/04/25 08:38:00;;;;;;;2.90;1.67;;;;;;;5.98;59.21;101498.28;5107554;27;20273;-76
2021/04/25 08:40:26;;;;;;;4.13;1.50;;;;;;;6.14;58.55;101495.09;5109292;27;20820;-76
2021/04/25 08:42:52;;;;;;;3.93;1.47;;;;;;;5.97;55.62;101497.41;5109218;28;20199;-76
2021/04/25 08:45:19;;;;;;;7.40;2.33;;;;;;;6.02;56.47;101492.28;5108814;28;20200;-76
2021/04/25 08:47:54;;;;;;;2.53;1.67;;;;;;;6.38;57.92;101491.13;5107482;28;20284;-76
2021/04/25 08:50:21;;;;;;;4.67;2.13;;;;;;;6.41;57.14;101492.91;5109103;28;20579;-76
2021/04/25 08:52:47;;;;;;;5.93;2.63;;;;;;;6.62;58.98;101494.94;5108192;27;20208;-76
2021/04/25 08:55:13;;;;;;;6.43;3.40;;;;;;;6.13;60.06;101497.66;5108965;27;20204;-76
2021/04/25 08:57:39;;;;;;;5.47;2.90;;;;;;;5.96;60.14;101500.81;5107860;27;20220;-76
2021/04/25 09:00:07;;;;;;;4.13;2.60;;;;;;;6.02;58.07;101499.19;5107569;28;20223;-76
2021/04/25 09:02:35;;;;;;;6.77;2.50;;;;;;;6.26;58.31;101491.81;5107573;28;20211;-76
2021/04/25 09:05:01;;;;;;;6.13;2.43;;;;;;;6.28;58.02;101489.25;5108411;28;21115;-76
2021/04/25 09:07:27;;;;;;;3.63;2.30;;;;;;;6.51;56.54;101489.59;5107706;28;20242;-76
2021/04/25 09:09:55;;;;;;;4.57;3.03;;;;;;;6.68;57.49;101489.84;5109287;27;20195;-76
2021/04/25 09:12:34;;;;;;;8.07;2.23;;;;;;;6.66;55.66;101494.13;5107216;28;20209;-76
2021/04/25 09:15:00;;;;;;;3.87;2.20;;;;;;;6.68;56.68;101492.41;5107334;27;20215;-76
2021/04/25 09:17:27;;;;;;;3.60;2.50;;;;;;;6.43;54.01;101486.03;5106917;27;20230;-75
2021/04/25 09:19:58;;;;;;;5.03;2.13;;;;;;;6.69;54.69;101489.00;5109401;27;20300;-76
2021/04/25 09:22:40;;;;;;;7.33;2.33;;;;;;;7.00;53.90;101471.22;5107455;27;20199;-76
2021/04/25 09:25:08;;;;;;;3.07;1.60;;;;;;;7.30;55.20;101473.31;5108410;28;20196;-76
2021/04/25 09:27:34;;;;;;;3.03;2.03;;;;;;;7.46;53.67;101479.56;5107910;28;20226;-74
2021/04/25 09:30:01;;;;;;;2.50;2.20;;;;;;;7.26;53.62;101468.97;5108279;28;20199;-75
2021/04/25 09:32:30;;;;;;;4.70;1.80;;;;;;;7.13;54.67;101480.91;5105771;28;20205;-74
2021/04/25 09:35:10;;;;;;;5.20;2.10;;;;;;;6.70;53.77;101483.84;5108331;28;20210;-74
2021/04/25 09:37:37;;;;;;;3.97;1.70;;;;;;;6.78;54.60;101478.75;5107181;28;20244;-74
2021/04/25 09:40:06;;;;;;;2.77;1.80;;;;;;;6.78;53.21;101478.75;5108428;28;20227;-74
2021/04/25 09:42:53;;;;;;;4.20;1.60;;;;;;;7.20;53.42;101463.69;5106033;28;20217;-75
2021/04/25 09:45:23;;;;;;;7.27;1.97;;;;;;;7.35;52.12;101467.34;5108101;27;20207;-75
2021/04/25 09:47:49;;;;;;;5.30;1.50;;;;;;;7.50;52.63;101468.34;5106486;27;20718;-75
2021/04/25 09:50:19;;;;;;;3.87;1.70;;;;;;;7.41;52.55;101460.44;5108224;28;20411;-75
2021/04/25 09:52:48;;;;;;;3.53;1.67;;;;;;;7.74;52.66;101459.91;5106371;28;20204;-75
2021/04/25 09:55:32;;;;;;;2.67;1.37;;;;;;;7.74;50.97;101459.91;5107715;28;20212;-75
2021/04/25 09:58:05;;;;;;;3.50;1.40;;;;;;;8.07;51.08;101454.13;5106233;28;20222;-74
2021/04/25 10:00:38;;;;;;;3.47;1.30;;;;;;;7.97;50.13;101457.53;5107744;27;20246;-74
2021/04/25 10:03:09;;;;;;;2.63;1.60;;;;;;;7.51;49.35;101462.28;5107820;28;20509;-74
2021/04/25 10:05:37;;;;;;;4.67;1.67;;;;;;;7.67;50.25;101459.00;5108055;28;20250;-75
2021/04/25 10:08:04;;;;;;;1.53;1.27;;;;;;;7.72;49.36;101466.81;5107715;28;20220;-75
2021/04/25 10:10:30;;;;;;;2.93;1.50;;;;;;;7.95;49.92;101454.03;5108274;28;20254;-74
2021/04/25 10:12:57;;;;;;;3.00;1.77;;;;;;;8.26;49.23;101449.06;5107036;28;20318;-74
2021/04/25 10:15:24;;;;;;;2.53;1.67;;;;;;;8.47;47.94;101449.22;5108257;28;20218;-74
2021/04/25 10:17:52;;;;;;;3.23;2.03;;;;;;;8.68;46.50;101447.59;5107484;28;20231;-74
2021/04/25 10:20:19;;;;;;;4.93;2.07;;;;;;;8.61;45.76;101453.66;5107990;28;20230;-74
2021/04/25 10:22:48;;;;;;;2.67;1.80;;;;;;;8.47;48.16;101456.16;5107294;28;20207;-74
2021/04/25 10:25:31;;;;;;;4.20;1.90;;;;;;;8.23;47.27;101457.72;5108100;28;20200;-75
2021/04/25 10:28:01;;;;;;;2.97;1.87;;;;;;;8.14;47.04;101452.44;5105767;28;20248;-75
2021/04/25 10:30:37;;;;;;;2.80;2.00;;;;;;;7.99;48.14;101449.72;5107749;28;20195;-74
2021/04/25 10:33:03;;;;;;;2.77;1.87;;;;;;;8.32;46.71;101439.59;5106677;28;20192;-74
2021/04/25 10:35:33;;;;;;;6.00;2.17;;;;;;;8.75;47.21;101441.56;5108012;28;20215;-74
2021/04/25 10:38:01;;;;;;;4.13;2.03;;;;;;;8.95;45.72;101442.50;5107065;28;20219;-74
2021/04/25 10:40:32;;;;;;;4.20;2.43;;;;;;;8.87;45.83;101453.78;5108236;28;20220;-74
2021/04/25 10:43:01;;;;;;;3.87;2.17;;;;;;;8.72;44.86;101449.34;5108050;28;20305;-74
2021/04/25 10:45:31;;;;;;;3.23;2.03;;;;;;;8.63;45.81;101446.72;5112341;27;20209;-74
2021/04/25 10:48:29;;;;;;;3.93;1.70;;;;;;;8.47;46.09;101443.16;5111143;27;20223;-74
2021/04/25 10:50:57;;;;;;;3.07;1.93;;;;;;;8.34;46.50;101449.97;5111577;27;20211;-75
2021/04/25 10:53:29;;;;;;;2.00;1.73;;;;;;;8.44;46.31;101445.72;5111481;28;20200;-75
2021/04/25 10:56:23;;;;;;;2.13;1.73;;;;;;;8.66;46.85;101450.22;5111287;28;20293;-74
2021/04/25 10:59:25;;;;;;;3.37;2.23;;;;;;;8.74;47.48;101448.50;5111752;28;20209;-75
2021/04/25 11:01:51;;;;;;;2.77;1.90;;;;;;;9.07;46.40;101451.25;5110583;27;20209;-75
2021/04/25 11:04:58;;;;;;;4.60;2.13;;;;;;;9.46;45.10;101447.03;5111204;28;20207;-75
2021/04/25 11:07:48;;;;;;;2.53;1.80;;;;;;;9.56;43.12;101445.31;5111383;27;20219;-75
2021/04/25 11:10:20;;;;;;;4.10;2.07;;;;;;;9.76;44.26;101446.19;5111602;27;20202;-75
2021/04/25 11:12:47;;;;;;;4.93;2.73;;;;;;;9.97;43.54;101447.03;5111027;28;20427;-75
2021/04/25 11:16:02;;;;;;;5.40;2.73;;;;;;;10.23;44.65;101447.06;5111189;27;21112;-75
2021/04/25 11:18:51;;;;;;;5.60;2.50;;;;;;;10.41;42.95;101444.44;5112032;28;20197;-74
2021/04/25 11:21:51;;;;;;;3.67;2.20;;;;;;;10.47;42.31;101433.97;5110464;27;20239;-75
2021/04/25 11:24:34;;;;;;;2.50;2.23;;;;;;;10.59;42.04;101438.31;5110348;28;20204;-75
2021/04/25 11:27:03;;;;;;;3.23;2.07;;;;;;;10.80;42.45;101433.88;5110076;27;20620;-75
2021/04/25 11:30:02;;;;;;;2.63;2.00;;;;;;;10.61;41.39;101435.69;5110837;28;21168;-75
2021/04/25 11:32:31;;;;;;;3.73;2.00;;;;;;;10.84;40.09;101419.91;5109326;27;20209;-75
2021/04/25 11:34:59;;;;;;;2.23;1.97;;;;;;;10.17;39.78;101429.66;5111048;28;20667;-75